createdAt,value
2023-01-31T00:01:20.812Z,1.61
2023-01-31T00:03:48.302Z,1.54
2023-01-31T00:06:22.294Z,1.49
2023-01-31T00:08:49.955Z,1.47
2023-01-31T00:11:18.461Z,1.50
2023-01-31T00:13:45.604Z,1.49
2023-01-31T00:16:13.508Z,1.50
2023-01-31T00:18:40.615Z,1.46
2023-01-31T00:21:13.398Z,1.47
2023-01-31T00:23:41.541Z,1.47
2023-01-31T00:26:16.401Z,1.45
2023-01-31T00:28:44.483Z,1.44
2023-01-31T00:31:12.400Z,1.47
2023-01-31T00:33:41.344Z,1.50
2023-01-31T00:36:11.329Z,1.58
2023-01-31T00:38:38.869Z,1.59
2023-01-31T00:41:05.907Z,1.64
2023-01-31T00:43:33.164Z,1.68
2023-01-31T00:46:00.133Z,1.69
2023-01-31T00:48:27.626Z,1.74
2023-01-31T00:50:54.318Z,1.80
2023-01-31T00:53:23.861Z,1.81
2023-01-31T00:55:51.923Z,1.77
2023-01-31T00:58:19.391Z,1.75
2023-01-31T01:00:47.066Z,1.73
2023-01-31T01:03:14.100Z,1.72
2023-01-31T01:05:41.343Z,1.70
2023-01-31T01:08:08.194Z,1.70
2023-01-31T01:10:34.711Z,1.70
2023-01-31T01:13:01.616Z,1.67
2023-01-31T01:15:28.084Z,1.68
2023-01-31T01:17:55.750Z,1.71
2023-01-31T01:20:22.313Z,1.71
2023-01-31T01:22:48.886Z,1.72
2023-01-31T01:25:15.840Z,1.71
2023-01-31T01:27:42.670Z,1.70
2023-01-31T01:30:11.924Z,1.69
2023-01-31T01:32:38.465Z,1.72
2023-01-31T01:35:05.199Z,1.75
2023-01-31T01:37:31.673Z,1.76
2023-01-31T01:39:59.156Z,1.75
2023-01-31T01:42:26.727Z,1.75
2023-01-31T01:44:59.359Z,1.75
2023-01-31T01:47:37.777Z,1.73
2023-01-31T01:50:05.043Z,1.75
2023-01-31T01:52:36.438Z,1.80
2023-01-31T01:55:32.268Z,1.85
2023-01-31T01:58:07.941Z,1.84
2023-01-31T02:00:36.169Z,1.90
2023-01-31T02:03:06.141Z,1.92
2023-01-31T02:05:37.765Z,1.97
2023-01-31T02:08:04.859Z,2.01
2023-01-31T02:10:44.071Z,2.05
2023-01-31T02:13:11.884Z,2.04
2023-01-31T02:15:38.381Z,2.12
2023-01-31T02:18:06.279Z,2.18
2023-01-31T02:20:50.564Z,2.26
2023-01-31T02:23:37.592Z,2.31
2023-01-31T02:26:14.911Z,2.40
2023-01-31T02:28:59.514Z,2.46
2023-01-31T02:31:54.620Z,2.50
2023-01-31T02:34:24.812Z,2.54
2023-01-31T02:37:16.911Z,2.62
2023-01-31T02:40:01.757Z,2.67
2023-01-31T02:42:54.592Z,2.73
2023-01-31T02:45:30.166Z,2.76
2023-01-31T02:48:22.122Z,2.82
2023-01-31T02:50:58.988Z,2.87
2023-01-31T02:53:35.326Z,2.91
2023-01-31T02:56:17.848Z,2.95
2023-01-31T02:58:50.583Z,3.00
2023-01-31T03:01:23.233Z,3.05
2023-01-31T03:03:51.535Z,3.08
2023-01-31T03:06:23.183Z,3.12
2023-01-31T03:09:02.320Z,3.14
2023-01-31T03:11:39.542Z,3.16
2023-01-31T03:14:25.028Z,3.19
2023-01-31T03:17:25.203Z,3.20
2023-01-31T03:20:17.216Z,3.24
2023-01-31T03:22:48.470Z,3.29
2023-01-31T03:25:18.271Z,3.28
2023-01-31T03:27:55.423Z,3.29
2023-01-31T03:30:37.367Z,3.30
2023-01-31T03:33:17.432Z,3.33
2023-01-31T03:35:51.328Z,3.34
2023-01-31T03:38:24.565Z,3.38
2023-01-31T03:41:02.025Z,3.41
2023-01-31T03:43:37.966Z,3.43
2023-01-31T03:46:14.366Z,3.48
2023-01-31T03:48:45.361Z,3.50
2023-01-31T03:51:19.195Z,3.51
2023-01-31T03:53:54.141Z,3.57
2023-01-31T03:56:28.700Z,3.60
2023-01-31T03:59:00.151Z,3.62
2023-01-31T04:01:32.357Z,3.66
2023-01-31T04:04:05.251Z,3.70
2023-01-31T04:06:32.248Z,3.73
2023-01-31T04:08:59.195Z,3.73
2023-01-31T04:11:27.582Z,3.82
2023-01-31T04:13:54.519Z,3.85
2023-01-31T04:16:21.016Z,3.86
2023-01-31T04:18:47.523Z,3.84
2023-01-31T04:21:15.304Z,3.84
2023-01-31T04:23:41.828Z,3.81
2023-01-31T04:26:08.297Z,3.80
2023-01-31T04:28:34.726Z,3.80
2023-01-31T04:31:01.243Z,3.79
2023-01-31T04:33:27.765Z,3.81
2023-01-31T04:35:54.207Z,3.82
2023-01-31T04:38:20.689Z,3.85
2023-01-31T04:40:47.156Z,3.85
2023-01-31T04:43:13.831Z,3.85
2023-01-31T04:45:40.233Z,3.88
2023-01-31T04:48:06.980Z,3.90
2023-01-31T04:50:33.681Z,3.89
2023-01-31T04:53:00.278Z,3.90
2023-01-31T04:55:27.546Z,3.91
2023-01-31T04:57:54.057Z,3.92
2023-01-31T05:00:20.884Z,3.95
2023-01-31T05:02:47.522Z,3.95
2023-01-31T05:05:13.911Z,3.96
2023-01-31T05:07:40.413Z,3.95
2023-01-31T05:10:07.727Z,3.95
2023-01-31T05:12:34.227Z,3.93
2023-01-31T05:15:01.591Z,3.93
2023-01-31T05:17:29.852Z,3.95
2023-01-31T05:19:57.299Z,3.93
2023-01-31T05:22:23.801Z,3.93
2023-01-31T05:24:51.023Z,3.94
2023-01-31T05:27:18.653Z,3.96
2023-01-31T05:29:45.989Z,3.95
2023-01-31T05:32:14.483Z,3.95
2023-01-31T05:34:40.958Z,3.98
2023-01-31T05:37:07.472Z,3.98
2023-01-31T05:39:33.959Z,4.00
2023-01-31T05:42:00.353Z,3.99
2023-01-31T05:44:26.818Z,3.99
2023-01-31T05:46:53.228Z,3.99
2023-01-31T05:49:20.073Z,4.00
2023-01-31T05:51:46.546Z,4.00
2023-01-31T05:54:13.105Z,4.01
2023-01-31T05:56:39.706Z,4.03
2023-01-31T05:59:06.256Z,4.06
2023-01-31T06:01:33.301Z,4.09
2023-01-31T06:04:00.668Z,4.10
2023-01-31T06:06:27.219Z,4.11
2023-01-31T06:08:53.593Z,4.10
2023-01-31T06:11:20.007Z,4.13
2023-01-31T06:13:46.445Z,4.16
2023-01-31T06:16:13.134Z,4.17
2023-01-31T06:18:39.657Z,4.17
2023-01-31T06:21:06.145Z,4.20
2023-01-31T06:23:34.397Z,4.21
2023-01-31T06:26:01.032Z,4.21
2023-01-31T06:28:27.631Z,4.24
2023-01-31T06:30:54.195Z,4.25
2023-01-31T06:33:21.547Z,4.25
2023-01-31T06:35:49.230Z,4.28
2023-01-31T06:38:16.296Z,4.30
2023-01-31T06:40:42.922Z,4.30
2023-01-31T06:43:09.336Z,4.29
2023-01-31T06:45:35.792Z,4.29
2023-01-31T06:48:02.237Z,4.34
2023-01-31T06:50:28.675Z,4.33
2023-01-31T06:52:55.210Z,4.31
2023-01-31T06:55:21.873Z,4.32
2023-01-31T06:57:49.759Z,4.30
2023-01-31T07:00:18.576Z,4.33
2023-01-31T07:02:46.194Z,4.34
2023-01-31T07:05:13.002Z,4.37
2023-01-31T07:07:39.546Z,4.40
2023-01-31T07:10:06.394Z,4.42
2023-01-31T07:12:33.041Z,4.45
2023-01-31T07:14:59.482Z,4.45
2023-01-31T07:17:25.925Z,4.45
2023-01-31T07:19:52.611Z,4.49
2023-01-31T07:22:19.870Z,4.51
2023-01-31T07:24:46.351Z,4.51
2023-01-31T07:27:13.932Z,4.51
2023-01-31T07:29:40.585Z,4.53
2023-01-31T07:32:07.186Z,4.53
2023-01-31T07:34:33.707Z,4.53
2023-01-31T07:37:01.202Z,4.53
2023-01-31T07:39:28.439Z,4.55
2023-01-31T07:41:55.409Z,4.59
2023-01-31T07:44:24.040Z,4.61
2023-01-31T07:46:51.093Z,4.63
2023-01-31T07:49:17.475Z,4.62
2023-01-31T07:51:43.909Z,4.64
2023-01-31T07:54:11.653Z,4.68
2023-01-31T07:56:38.097Z,4.68
2023-01-31T07:59:05.232Z,4.70
2023-01-31T08:01:50.936Z,4.73
2023-01-31T08:04:22.169Z,4.75
2023-01-31T08:06:53.304Z,4.78
2023-01-31T08:09:19.712Z,4.79
2023-01-31T08:11:46.234Z,4.79
2023-01-31T08:14:12.756Z,4.80
2023-01-31T08:16:39.814Z,4.80
2023-01-31T08:19:06.197Z,4.80
2023-01-31T08:21:32.967Z,4.79
2023-01-31T08:23:59.545Z,4.76
2023-01-31T08:26:25.995Z,4.77
2023-01-31T08:28:54.056Z,4.81
2023-01-31T08:31:23.391Z,4.84
2023-01-31T08:33:52.825Z,4.88
2023-01-31T08:36:24.603Z,4.90
2023-01-31T08:38:51.762Z,4.92
2023-01-31T08:41:19.944Z,4.93
2023-01-31T08:43:58.111Z,4.95
2023-01-31T08:46:31.339Z,4.98
2023-01-31T08:48:58.344Z,5.02
2023-01-31T08:51:25.326Z,5.09
2023-01-31T08:53:52.005Z,5.13
2023-01-31T08:56:21.256Z,5.13
2023-01-31T08:58:47.964Z,5.14
2023-01-31T09:01:17.301Z,5.17
2023-01-31T09:03:45.391Z,5.18
2023-01-31T09:06:15.747Z,5.20
2023-01-31T09:08:42.523Z,5.24
2023-01-31T09:11:09.180Z,5.26
2023-01-31T09:13:36.518Z,5.28
2023-01-31T09:16:09.113Z,5.30
2023-01-31T09:18:37.041Z,5.32
2023-01-31T09:21:17.731Z,5.32
2023-01-31T09:23:44.735Z,5.35
2023-01-31T09:26:12.713Z,5.38
2023-01-31T09:28:42.618Z,5.41
2023-01-31T09:31:12.873Z,5.44
2023-01-31T09:33:39.797Z,5.47
2023-01-31T09:36:09.319Z,5.49
2023-01-31T09:38:36.649Z,5.51
2023-01-31T09:41:05.932Z,5.55
2023-01-31T09:43:45.784Z,5.55
2023-01-31T09:46:20.693Z,5.56
2023-01-31T09:48:51.298Z,5.55
2023-01-31T09:51:18.770Z,5.54
2023-01-31T09:53:46.391Z,5.53
2023-01-31T09:56:21.105Z,5.54
2023-01-31T09:59:04.560Z,5.55
2023-01-31T10:01:52.143Z,5.55
2023-01-31T10:04:32.910Z,5.58
2023-01-31T10:07:38.080Z,5.61
2023-01-31T10:10:46.595Z,5.63
2023-01-31T10:13:17.042Z,5.63
2023-01-31T10:15:49.629Z,5.62
2023-01-31T10:18:28.327Z,5.63
2023-01-31T10:21:11.079Z,5.65
2023-01-31T10:23:37.425Z,5.70
2023-01-31T10:26:10.610Z,5.76
2023-01-31T10:28:49.579Z,5.83
2023-01-31T10:31:34.028Z,5.92
2023-01-31T10:34:38.556Z,6.00
2023-01-31T10:37:25.556Z,6.04
2023-01-31T10:40:03.670Z,6.04
2023-01-31T10:42:32.818Z,6.12
2023-01-31T10:45:16.884Z,6.18
2023-01-31T10:47:51.206Z,6.29
2023-01-31T10:50:23.742Z,6.34
2023-01-31T10:53:15.107Z,6.44
2023-01-31T10:55:50.572Z,6.44
2023-01-31T10:58:22.141Z,6.40
2023-01-31T11:00:49.511Z,6.36
2023-01-31T11:03:16.353Z,6.35
2023-01-31T11:05:54.689Z,6.29
2023-01-31T11:08:33.392Z,6.24
2023-01-31T11:11:09.147Z,6.25
2023-01-31T11:13:35.685Z,6.21
2023-01-31T11:16:04.051Z,6.17
2023-01-31T11:18:35.176Z,6.16
2023-01-31T11:21:03.522Z,6.14
2023-01-31T11:23:32.527Z,6.14
2023-01-31T11:25:59.848Z,6.14
2023-01-31T11:28:38.268Z,6.14
2023-01-31T11:31:09.735Z,6.14
2023-01-31T11:33:39.452Z,6.10
2023-01-31T11:36:11.345Z,6.08
2023-01-31T11:38:37.891Z,6.06
2023-01-31T11:41:31.527Z,6.05
2023-01-31T11:44:19.189Z,6.06
2023-01-31T11:46:52.476Z,6.06
2023-01-31T11:49:27.685Z,6.08
2023-01-31T11:51:54.778Z,6.11
2023-01-31T11:54:29.812Z,6.14
2023-01-31T11:56:56.482Z,6.16
2023-01-31T11:59:27.257Z,6.19
2023-01-31T12:01:57.991Z,6.22
2023-01-31T12:04:32.685Z,6.24
2023-01-31T12:07:20.803Z,6.27
2023-01-31T12:09:48.223Z,6.29
2023-01-31T12:12:31.054Z,6.28
2023-01-31T12:15:13.743Z,6.30
2023-01-31T12:17:46.713Z,6.33
2023-01-31T12:20:33.443Z,6.37
2023-01-31T12:23:07.500Z,6.40
2023-01-31T12:25:53.050Z,6.43
2023-01-31T12:28:25.173Z,6.47
2023-01-31T12:31:07.065Z,6.51
2023-01-31T12:33:59.139Z,6.56
2023-01-31T12:36:28.434Z,6.61
2023-01-31T12:39:26.257Z,6.66
2023-01-31T12:42:00.723Z,6.72
2023-01-31T12:44:42.011Z,6.75
2023-01-31T12:47:33.224Z,6.79
2023-01-31T12:50:05.707Z,6.87
2023-01-31T12:52:32.045Z,6.95
2023-01-31T12:55:17.292Z,7.06
2023-01-31T12:58:13.084Z,7.17
2023-01-31T13:00:48.343Z,7.30
2023-01-31T13:03:30.733Z,7.40
2023-01-31T13:06:15.066Z,7.50
2023-01-31T13:08:57.115Z,7.60
2023-01-31T13:11:51.532Z,7.67
2023-01-31T13:14:22.798Z,7.69
2023-01-31T13:16:54.720Z,7.71
2023-01-31T13:19:31.328Z,7.74
2023-01-31T13:22:01.908Z,7.77
2023-01-31T13:24:38.273Z,7.80
2023-01-31T13:27:15.273Z,7.85
2023-01-31T13:29:45.191Z,7.86
2023-01-31T13:32:28.565Z,7.87
2023-01-31T13:35:00.675Z,7.88
2023-01-31T13:37:30.400Z,7.90
2023-01-31T13:40:02.808Z,7.99
2023-01-31T13:42:29.474Z,8.09
2023-01-31T13:45:00.542Z,8.17
2023-01-31T13:47:30.591Z,8.21
2023-01-31T13:50:02.069Z,8.23
2023-01-31T13:52:39.844Z,8.24
2023-01-31T13:55:16.653Z,8.27
2023-01-31T13:57:51.814Z,8.26
2023-01-31T14:00:39.003Z,8.25
2023-01-31T14:03:13.036Z,8.26
2023-01-31T14:05:42.546Z,8.27
2023-01-31T14:08:27.335Z,8.26
2023-01-31T14:10:56.076Z,8.26
2023-01-31T14:13:38.803Z,8.31
2023-01-31T14:16:45.794Z,8.29
2023-01-31T14:19:31.404Z,8.27
2023-01-31T14:22:17.769Z,8.30
2023-01-31T14:24:47.144Z,8.39
2023-01-31T14:27:21.533Z,8.40
2023-01-31T14:30:07.715Z,8.37
2023-01-31T14:32:38.733Z,8.37
2023-01-31T14:35:14.353Z,8.40
2023-01-31T14:37:54.053Z,8.50
2023-01-31T14:40:24.477Z,8.53
2023-01-31T14:42:55.072Z,8.49
2023-01-31T14:45:51.804Z,8.45
2023-01-31T14:48:55.868Z,8.43
2023-01-31T14:51:58.985Z,8.40
2023-01-31T14:54:46.530Z,8.39
2023-01-31T14:57:18.665Z,8.40
2023-01-31T15:00:03.940Z,8.41
2023-01-31T15:02:33.780Z,8.42
2023-01-31T15:05:04.395Z,8.39
2023-01-31T15:07:31.211Z,8.39
2023-01-31T15:09:58.031Z,8.36
2023-01-31T15:12:54.606Z,8.34
2023-01-31T15:15:45.964Z,8.38
2023-01-31T15:18:19.955Z,8.39
2023-01-31T15:20:52.422Z,8.42
2023-01-31T15:23:25.206Z,8.45
2023-01-31T15:25:53.982Z,8.45
2023-01-31T15:28:25.329Z,8.44
2023-01-31T15:30:53.516Z,8.42
2023-01-31T15:33:28.180Z,8.43
2023-01-31T15:35:54.655Z,8.43
2023-01-31T15:38:35.410Z,8.38
2023-01-31T15:41:20.071Z,8.34
2023-01-31T15:43:47.686Z,8.33
2023-01-31T15:46:23.031Z,8.26
2023-01-31T15:48:49.789Z,8.19
2023-01-31T15:51:17.079Z,8.20
2023-01-31T15:53:43.530Z,8.11
2023-01-31T15:56:25.563Z,8.04
2023-01-31T15:58:55.270Z,7.94
2023-01-31T16:01:21.836Z,7.93
2023-01-31T16:03:54.846Z,7.90
2023-01-31T16:06:25.291Z,7.89
2023-01-31T16:08:52.873Z,7.89
2023-01-31T16:11:19.728Z,7.89
2023-01-31T16:13:46.756Z,7.85
2023-01-31T16:16:14.435Z,7.85
2023-01-31T16:18:48.439Z,7.84
2023-01-31T16:21:27.339Z,7.79
2023-01-31T16:24:14.797Z,7.83
2023-01-31T16:27:06.488Z,7.79
2023-01-31T16:29:45.052Z,7.70
2023-01-31T16:32:33.677Z,7.64
2023-01-31T16:35:05.650Z,7.55
2023-01-31T16:37:36.035Z,7.51
2023-01-31T16:40:10.580Z,7.46
2023-01-31T16:42:39.089Z,7.41
2023-01-31T16:45:32.489Z,7.33
2023-01-31T16:48:21.573Z,7.31
2023-01-31T16:50:49.262Z,7.22
2023-01-31T16:53:27.461Z,7.14
2023-01-31T16:56:20.519Z,7.09
2023-01-31T16:58:51.675Z,7.04
2023-01-31T17:01:32.980Z,6.98
2023-01-31T17:04:05.595Z,6.89
2023-01-31T17:06:32.917Z,6.81
2023-01-31T17:09:00.604Z,6.80
2023-01-31T17:11:41.641Z,6.77
2023-01-31T17:14:09.102Z,6.69
2023-01-31T17:16:35.585Z,6.63
2023-01-31T17:19:01.978Z,6.57
2023-01-31T17:21:29.094Z,6.47
2023-01-31T17:23:55.469Z,6.43
2023-01-31T17:26:23.477Z,6.37
2023-01-31T17:29:00.692Z,6.34
2023-01-31T17:31:29.431Z,6.32
2023-01-31T17:33:56.009Z,6.33
2023-01-31T17:36:22.905Z,6.32
2023-01-31T17:38:50.174Z,6.33
2023-01-31T17:41:19.279Z,6.32
2023-01-31T17:43:45.788Z,6.29
2023-01-31T17:46:17.401Z,6.21
2023-01-31T17:48:44.671Z,6.18
2023-01-31T17:51:11.920Z,6.16
2023-01-31T17:53:48.772Z,6.11
2023-01-31T17:56:16.943Z,6.07
2023-01-31T17:58:43.405Z,6.00
2023-01-31T18:01:13.768Z,5.97
2023-01-31T18:03:40.625Z,5.89
2023-01-31T18:06:08.461Z,5.89
2023-01-31T18:08:35.244Z,5.90
2023-01-31T18:11:10.534Z,5.84
2023-01-31T18:13:38.417Z,5.85
2023-01-31T18:16:07.905Z,5.75
2023-01-31T18:18:35.699Z,5.79
2023-01-31T18:21:02.799Z,5.76
2023-01-31T18:23:29.207Z,5.74
2023-01-31T18:25:55.646Z,5.68
2023-01-31T18:28:22.096Z,5.66
2023-01-31T18:30:48.620Z,5.64
2023-01-31T18:33:15.087Z,5.60
2023-01-31T18:35:41.602Z,5.58
2023-01-31T18:38:08.652Z,5.57
2023-01-31T18:40:35.067Z,5.52
2023-01-31T18:43:01.507Z,5.50
2023-01-31T18:45:27.930Z,5.52
2023-01-31T18:47:54.527Z,5.48
2023-01-31T18:50:20.962Z,5.47
2023-01-31T18:52:47.363Z,5.40
2023-01-31T18:55:13.766Z,5.38
2023-01-31T18:57:40.243Z,5.35
2023-01-31T19:00:07.382Z,5.38
2023-01-31T19:02:33.901Z,5.37
2023-01-31T19:05:01.671Z,5.32
2023-01-31T19:07:28.061Z,5.32
2023-01-31T19:09:54.488Z,5.34
2023-01-31T19:12:20.862Z,5.31
2023-01-31T19:14:48.354Z,5.30
2023-01-31T19:17:15.807Z,5.30
2023-01-31T19:19:42.292Z,5.32
2023-01-31T19:22:08.795Z,5.29
2023-01-31T19:24:35.283Z,5.25
2023-01-31T19:27:01.685Z,5.31
2023-01-31T19:29:28.784Z,5.38
2023-01-31T19:31:55.490Z,5.41
2023-01-31T19:34:22.097Z,5.44
2023-01-31T19:36:48.998Z,5.42
2023-01-31T19:39:15.505Z,5.36
2023-01-31T19:41:45.081Z,5.39
2023-01-31T19:44:11.670Z,5.42
2023-01-31T19:46:38.157Z,5.37
2023-01-31T19:49:05.150Z,5.38
2023-01-31T19:51:32.299Z,5.35
2023-01-31T19:54:03.658Z,5.36
2023-01-31T19:56:31.320Z,5.36
2023-01-31T19:58:58.021Z,5.36
2023-01-31T20:01:24.492Z,5.30
2023-01-31T20:03:51.594Z,5.29
2023-01-31T20:06:21.141Z,5.29
2023-01-31T20:08:52.532Z,5.27
2023-01-31T20:11:19.403Z,5.26
2023-01-31T20:13:45.873Z,5.25
2023-01-31T20:16:13.403Z,5.19
2023-01-31T20:18:40.984Z,5.18
2023-01-31T20:21:08.640Z,5.19
2023-01-31T20:23:35.241Z,5.16
2023-01-31T20:26:03.017Z,5.14
2023-01-31T20:28:29.415Z,5.10
2023-01-31T20:30:55.881Z,5.05
2023-01-31T20:33:22.409Z,5.01
2023-01-31T20:35:48.839Z,5.02
2023-01-31T20:38:18.108Z,5.04
2023-01-31T20:40:52.577Z,5.03
2023-01-31T20:43:21.395Z,5.01
2023-01-31T20:45:48.113Z,4.91
2023-01-31T20:48:14.738Z,4.96
2023-01-31T20:50:41.191Z,4.94
2023-01-31T20:53:17.962Z,4.93
2023-01-31T20:55:46.128Z,5.02
2023-01-31T20:58:12.549Z,5.01
2023-01-31T21:00:38.993Z,4.98
2023-01-31T21:03:05.462Z,4.93
2023-01-31T21:05:31.925Z,4.93
2023-01-31T21:07:58.358Z,4.89
2023-01-31T21:10:24.734Z,4.82
2023-01-31T21:12:51.154Z,4.81
2023-01-31T21:15:17.689Z,4.79
2023-01-31T21:17:44.136Z,4.71
2023-01-31T21:20:11.417Z,4.66
2023-01-31T21:22:37.826Z,4.60
2023-01-31T21:25:04.565Z,4.62
2023-01-31T21:27:30.983Z,4.59
2023-01-31T21:29:57.579Z,4.58
2023-01-31T21:32:24.004Z,4.58
2023-01-31T21:34:52.188Z,4.59
2023-01-31T21:37:18.617Z,4.50
2023-01-31T21:39:45.003Z,4.41
2023-01-31T21:42:19.370Z,4.33
2023-01-31T21:44:47.446Z,4.25
2023-01-31T21:47:15.235Z,4.17
2023-01-31T21:49:41.671Z,4.13
2023-01-31T21:52:08.607Z,4.07
2023-01-31T21:54:35.222Z,3.99
2023-01-31T21:57:01.650Z,3.95
2023-01-31T21:59:28.157Z,3.98
2023-01-31T22:01:54.695Z,3.99
2023-01-31T22:04:23.033Z,4.01
2023-01-31T22:06:50.440Z,3.93
2023-01-31T22:09:17.784Z,3.85
2023-01-31T22:11:47.330Z,3.80
2023-01-31T22:14:16.025Z,3.78
2023-01-31T22:16:43.136Z,3.76
2023-01-31T22:19:13.763Z,3.73
2023-01-31T22:21:41.970Z,3.72
2023-01-31T22:24:11.354Z,3.72
2023-01-31T22:26:43.381Z,3.71
2023-01-31T22:29:12.622Z,3.71
2023-01-31T22:31:39.240Z,3.66
2023-01-31T22:34:06.946Z,3.60
2023-01-31T22:36:33.654Z,3.62
2023-01-31T22:39:00.306Z,3.64
2023-01-31T22:41:27.081Z,3.60
2023-01-31T22:43:53.852Z,3.56
2023-01-31T22:46:23.255Z,3.55
2023-01-31T22:48:50.608Z,3.49
2023-01-31T22:51:22.688Z,3.46
2023-01-31T22:53:49.935Z,3.45
2023-01-31T22:56:19.975Z,3.41
2023-01-31T22:58:46.769Z,3.42
2023-01-31T23:01:15.815Z,3.39
2023-01-31T23:03:42.325Z,3.37
2023-01-31T23:06:10.793Z,3.36
2023-01-31T23:08:37.532Z,3.36
2023-01-31T23:11:09.325Z,3.36
2023-01-31T23:13:36.880Z,3.33
2023-01-31T23:16:04.643Z,3.32
2023-01-31T23:18:31.318Z,3.36
2023-01-31T23:21:14.295Z,3.38
2023-01-31T23:23:42.667Z,3.36
2023-01-31T23:26:09.529Z,3.34
2023-01-31T23:28:36.093Z,3.34
2023-01-31T23:31:02.636Z,3.37
2023-01-31T23:33:29.068Z,3.42
2023-01-31T23:35:55.652Z,3.45
2023-01-31T23:38:22.890Z,3.52
2023-01-31T23:40:54.352Z,3.57
2023-01-31T23:43:21.830Z,3.64
2023-01-31T23:45:48.957Z,3.64
2023-01-31T23:48:15.698Z,3.70
2023-01-31T23:50:42.137Z,3.81
2023-01-31T23:53:08.830Z,3.89
2023-01-31T23:55:35.376Z,3.92
2023-01-31T23:58:01.816Z,3.96
